Time;durP1;ratioP1;P1;durP2;ratioP2;P2;SDS_P1;SDS_P2;PMS_P1;PMS_P2;Temp;Humidity;BMP_temperature;BMP_pressure;BME280_temperature;BME280_humidity;BME280_pressure;Samples;Min_cycle;Max_cycle;Signal;HPM_P1;HPM_P2
2022/01/22 20:16:36;;;;;;;16.65;11.48;;;;;;;-4.23;73.38;102033.16;5069189;28;20429;-62
2022/01/22 20:19:04;;;;;;;20.42;12.23;;;;;;;-4.20;72.24;102040.91;5067912;28;20040;-63
2022/01/22 20:21:30;;;;;;;21.20;13.03;;;;;;;-4.17;72.95;102033.00;5068804;28;20420;-68
2022/01/22 20:23:57;;;;;;;20.20;12.93;;;;;;;-4.01;72.57;102048.25;5068986;28;20044;-67
2022/01/22 20:26:23;;;;;;;24.88;15.55;;;;;;;-3.96;71.72;102051.59;5068967;28;20471;-63
2022/01/22 20:28:49;;;;;;;28.70;14.93;;;;;;;-4.00;71.08;102050.81;5069002;28;20072;-64
2022/01/22 20:31:14;;;;;;;22.23;13.40;;;;;;;-4.00;70.96;102061.22;5068758;28;20029;-64
2022/01/22 20:33:40;;;;;;;20.17;11.90;;;;;;;-3.94;71.24;102062.81;5069089;28;20059;-66
2022/01/22 20:36:07;;;;;;;21.00;13.27;;;;;;;-3.89;70.42;102079.16;5068976;28;20060;-64
2022/01/22 20:38:32;;;;;;;21.45;13.48;;;;;;;-3.98;69.41;102076.81;5068591;28;20029;-63
2022/01/22 20:40:58;;;;;;;20.17;11.60;;;;;;;-4.14;69.41;102079.75;5068871;28;20048;-66
2022/01/22 20:43:24;;;;;;;17.20;11.47;;;;;;;-4.23;69.39;102080.00;5068588;28;20040;-65
2022/01/22 20:45:50;;;;;;;18.08;12.10;;;;;;;-4.39;70.13;102056.06;5068546;28;20032;-64
2022/01/22 20:48:18;;;;;;;18.93;12.40;;;;;;;-4.41;69.71;102044.00;5068679;28;20055;-63
2022/01/22 20:50:45;;;;;;;20.58;12.10;;;;;;;-4.21;69.85;102067.81;5067986;28;20036;-62
2022/01/22 20:53:12;;;;;;;17.95;12.90;;;;;;;-4.25;69.15;102054.91;5065778;28;20044;-61
2022/01/22 20:55:39;;;;;;;20.25;12.80;;;;;;;-4.24;70.14;102067.88;5067979;28;20028;-64
2022/01/22 20:58:17;;;;;;;16.33;11.95;;;;;;;-4.27;69.64;102083.56;5067735;28;20033;-63
2022/01/22 21:00:43;;;;;;;22.90;12.35;;;;;;;-4.31;69.31;102084.53;5068002;28;20036;-64
2022/01/22 21:03:08;;;;;;;20.40;12.07;;;;;;;-4.31;70.35;102092.31;5067752;28;20373;-61
2022/01/22 21:05:34;;;;;;;20.03;12.83;;;;;;;-4.46;70.26;102061.47;5067962;28;20049;-61
2022/01/22 21:08:03;;;;;;;19.30;11.83;;;;;;;-4.52;70.98;102061.59;5067681;28;20040;-61
2022/01/22 21:10:30;;;;;;;19.80;12.23;;;;;;;-4.36;70.62;102078.56;5067724;28;20115;-59
2022/01/22 21:12:56;;;;;;;15.73;11.48;;;;;;;-4.19;71.40;102086.81;5067660;28;20033;-63
2022/01/22 21:15:23;;;;;;;20.03;12.03;;;;;;;-4.16;69.92;102083.28;5067286;28;20067;-63
2022/01/22 21:17:49;;;;;;;21.00;12.30;;;;;;;-4.11;70.18;102079.69;5067587;28;20041;-63
2022/01/22 21:20:16;;;;;;;21.48;13.07;;;;;;;-4.11;70.83;102084.03;5067789;28;20507;-62
2022/01/22 21:22:42;;;;;;;25.13;14.60;;;;;;;-4.06;71.18;102077.81;5067582;28;20029;-62
2022/01/22 21:25:09;;;;;;;22.07;14.10;;;;;;;-4.07;70.89;102075.25;5066718;28;20041;-62
2022/01/22 21:27:36;;;;;;;22.70;14.63;;;;;;;-4.01;70.63;102092.50;5053936;28;20400;-61
2022/01/22 21:30:05;;;;;;;25.55;14.80;;;;;;;-4.09;70.79;102090.91;5052719;28;20040;-60
2022/01/22 21:32:30;;;;;;;22.88;14.30;;;;;;;-4.03;71.37;102102.09;5054184;28;20118;-63
2022/01/22 21:34:57;;;;;;;18.97;12.93;;;;;;;-4.01;70.92;102102.91;5054462;28;20090;-66
2022/01/22 21:39:50;;;;;;;25.15;14.05;;;;;;;-3.89;70.64;102120.81;5054435;28;20044;-66
2022/01/22 21:42:30;;;;;;;23.35;15.35;;;;;;;-3.84;71.05;102108.53;5054570;28;20632;-66
2022/01/22 21:44:57;;;;;;;26.05;15.48;;;;;;;-3.89;70.88;102103.44;5053618;28;20127;-62
2022/01/22 21:47:23;;;;;;;23.20;15.65;;;;;;;-3.91;69.75;102118.25;5054051;28;20048;-62
2022/01/22 21:49:50;;;;;;;29.05;16.75;;;;;;;-3.94;69.35;102133.09;5054028;28;20122;-63
2022/01/22 21:52:16;;;;;;;31.92;15.88;;;;;;;-3.91;69.11;102151.22;5053915;28;20037;-64
2022/01/22 21:54:42;;;;;;;22.45;14.52;;;;;;;-3.95;68.88;102144.38;5053872;28;20520;-61
2022/01/22 21:57:08;;;;;;;21.60;13.50;;;;;;;-4.12;68.60;102106.59;5054329;28;20040;-62
2022/01/22 21:59:34;;;;;;;28.70;16.17;;;;;;;-3.84;70.06;102150.19;5054009;28;20515;-62
2022/01/22 22:02:00;;;;;;;27.83;15.57;;;;;;;-3.86;68.94;102147.63;5054296;28;20064;-62
2022/01/22 22:04:26;;;;;;;23.97;14.57;;;;;;;-3.87;69.06;102155.47;5054024;28;20094;-60
2022/01/22 22:06:51;;;;;;;23.97;14.90;;;;;;;-3.91;69.51;102151.22;5053870;28;20033;-62
2022/01/22 22:09:17;;;;;;;23.77;14.50;;;;;;;-3.95;68.98;102154.78;5053524;28;20043;-62
2022/01/22 22:11:46;;;;;;;24.17;14.63;;;;;;;-4.10;70.00;102123.03;5053845;28;20547;-63
2022/01/22 22:14:13;;;;;;;26.88;16.40;;;;;;;-3.92;69.42;102158.19;5053633;28;20037;-63
2022/01/22 22:16:41;;;;;;;29.63;16.98;;;;;;;-3.92;70.18;102167.72;5053840;28;20053;-64
2022/01/22 22:19:08;;;;;;;24.38;17.20;;;;;;;-4.01;70.34;102154.94;5053742;28;20124;-62
2022/01/22 22:21:35;;;;;;;24.40;15.30;;;;;;;-3.87;70.22;102153.72;5053426;28;20464;-63
2022/01/22 22:24:02;;;;;;;23.70;15.67;;;;;;;-3.76;70.27;102154.34;5053623;28;20079;-60
2022/01/22 22:26:28;;;;;;;30.63;17.38;;;;;;;-3.73;69.37;102163.81;5053663;28;20037;-61
2022/01/22 22:28:54;;;;;;;28.65;16.63;;;;;;;-3.95;69.89;102137.44;5053495;28;20037;-64
2022/01/22 22:31:21;;;;;;;29.67;15.73;;;;;;;-3.82;69.01;102164.88;5053547;28;20033;-64
2022/01/22 22:33:55;;;;;;;28.75;16.02;;;;;;;-3.72;69.89;102175.94;5053522;28;20041;-61
2022/01/22 22:36:22;;;;;;;28.73;16.50;;;;;;;-3.82;67.91;102177.88;5053227;28;20047;-61
2022/01/22 22:38:52;;;;;;;27.13;15.30;;;;;;;-3.80;69.06;102188.25;5052456;28;20527;-62
2022/01/22 22:41:22;;;;;;;23.92;14.35;;;;;;;-3.78;68.71;102186.47;5052352;28;20028;-60
2022/01/22 22:43:47;;;;;;;21.55;14.68;;;;;;;-3.76;68.06;102180.38;5052037;28;20029;-63
2022/01/22 22:46:13;;;;;;;20.00;13.47;;;;;;;-3.76;68.88;102177.75;5053160;28;20043;-65
2022/01/22 22:48:39;;;;;;;27.57;17.00;;;;;;;-3.75;68.76;102179.47;5052793;28;20047;-63
2022/01/22 22:51:06;;;;;;;22.93;13.30;;;;;;;-3.63;68.06;102196.53;5053162;28;20040;-60
2022/01/22 22:53:32;;;;;;;18.55;11.75;;;;;;;-3.64;67.29;102189.63;5053061;28;20047;-62
2022/01/22 22:55:58;;;;;;;17.70;11.18;;;;;;;-3.66;66.07;102182.72;5051495;28;20478;-62
2022/01/22 22:58:23;;;;;;;17.13;11.57;;;;;;;-3.72;65.83;102170.72;5052905;28;20044;-62
2022/01/22 23:00:58;;;;;;;19.07;12.90;;;;;;;-3.68;66.53;102193.19;5052951;28;20032;-62
2022/01/22 23:03:27;;;;;;;19.85;12.15;;;;;;;-3.60;66.08;102196.44;5052863;28;20124;-62
2022/01/22 23:05:55;;;;;;;20.83;11.65;;;;;;;-3.68;66.80;102193.19;5052938;28;20033;-62
2022/01/22 23:08:21;;;;;;;18.63;10.73;;;;;;;-3.90;66.24;102181.56;5052973;28;20124;-61
2022/01/22 23:10:48;;;;;;;17.03;10.90;;;;;;;-3.73;67.07;102209.81;5052759;28;20120;-63
2022/01/22 23:13:24;;;;;;;19.42;12.55;;;;;;;-3.75;66.35;102205.50;5052643;28;20443;-62
2022/01/22 23:15:53;;;;;;;17.67;12.50;;;;;;;-3.91;66.31;102187.66;5052408;28;20100;-61
2022/01/22 23:26:49;;;;;;;19.25;13.13;;;;;;;-3.75;66.55;102205.50;5052595;28;20040;-61
2022/01/22 23:29:14;;;;;;;20.07;12.30;;;;;;;-3.78;66.85;102210.75;5052519;28;20033;-61
2022/01/22 23:31:45;;;;;;;22.27;13.23;;;;;;;-3.90;67.82;102216.25;5051080;28;20114;-60
2022/01/22 23:56:12;;;;;;;22.63;14.98;;;;;;;-4.40;68.23;102243.34;5051965;28;20128;-60
2022/01/22 23:58:59;;;;;;;27.88;14.38;;;;;;;-4.42;69.05;102235.59;5051881;28;20032;-61
